createdAt,value
2018-06-05T00:01:39.662Z,83.35
2018-06-05T00:04:09.232Z,84.46
2018-06-05T00:06:38.855Z,84.89
2018-06-05T00:09:09.182Z,84.85
2018-06-05T00:11:38.845Z,84.99
2018-06-05T00:14:08.460Z,85.70
2018-06-05T00:16:38.217Z,85.81
2018-06-05T00:19:08.061Z,85.01
2018-06-05T00:21:37.891Z,84.96
2018-06-05T00:24:07.526Z,84.03
2018-06-05T00:26:37.452Z,83.74
2018-06-05T00:29:07.099Z,84.61
2018-06-05T00:31:36.689Z,84.76
2018-06-05T00:34:06.502Z,84.32
2018-06-05T00:36:36.150Z,84.13
2018-06-05T00:39:07.140Z,83.36
2018-06-05T00:41:36.826Z,83.96
2018-06-05T00:44:06.554Z,84.85
2018-06-05T00:46:36.424Z,85.05
2018-06-05T00:49:05.781Z,84.99
2018-06-05T00:51:52.281Z,84.83
2018-06-05T00:54:22.008Z,84.29
2018-06-05T00:56:51.660Z,84.76
2018-06-05T00:59:21.322Z,84.96
2018-06-05T01:01:51.071Z,85.35
2018-06-05T01:04:21.499Z,85.62
2018-06-05T01:06:51.207Z,84.70
2018-06-05T01:09:20.791Z,84.83
2018-06-05T01:11:50.862Z,84.64
2018-06-05T01:14:20.475Z,84.44
2018-06-05T01:16:50.308Z,85.00
2018-06-05T01:19:19.958Z,84.08
2018-06-05T01:21:49.601Z,84.18
2018-06-05T01:24:19.194Z,83.77
2018-06-05T01:26:48.896Z,83.68
2018-06-05T01:29:18.497Z,85.08
2018-06-05T01:31:48.201Z,84.65
2018-06-05T01:34:17.780Z,84.27
2018-06-05T01:36:47.476Z,83.75
2018-06-05T01:39:17.063Z,82.70
2018-06-05T01:41:46.708Z,83.21
2018-06-05T01:44:16.340Z,83.04
2018-06-05T01:46:46.004Z,82.79
2018-06-05T01:49:15.780Z,81.93
2018-06-05T01:51:45.422Z,81.70
2018-06-05T01:54:15.052Z,83.14
2018-06-05T01:56:44.670Z,83.71
2018-06-05T01:59:15.038Z,84.23
2018-06-05T02:01:44.707Z,83.49
2018-06-05T02:04:14.298Z,82.92
2018-06-05T02:06:44.046Z,83.05
2018-06-05T02:09:13.702Z,83.47
2018-06-05T02:11:43.428Z,83.60
2018-06-05T02:14:13.185Z,83.05
2018-06-05T02:16:42.837Z,83.46
2018-06-05T02:19:12.441Z,83.15
2018-06-05T02:21:45.076Z,83.42
2018-06-05T02:24:14.677Z,83.46
2018-06-05T02:26:44.328Z,82.44
2018-06-05T02:29:14.056Z,82.16
2018-06-05T02:31:43.674Z,82.65
2018-06-05T02:34:13.369Z,82.59
2018-06-05T02:36:43.107Z,81.82
2018-06-05T02:39:12.771Z,83.02
2018-06-05T02:41:42.397Z,82.96
2018-06-05T02:44:12.004Z,83.47
2018-06-05T02:46:41.640Z,84.28
2018-06-05T02:49:11.218Z,83.37
2018-06-05T02:51:40.893Z,82.46
2018-06-05T02:54:10.556Z,82.72
2018-06-05T02:56:41.179Z,83.67
2018-06-05T02:59:10.847Z,82.28
2018-06-05T03:01:40.476Z,82.81
2018-06-05T03:04:10.024Z,82.48
2018-06-05T03:06:39.729Z,82.30
2018-06-05T03:09:09.601Z,82.94
2018-06-05T03:11:39.219Z,82.56
2018-06-05T03:14:08.952Z,83.01
2018-06-05T03:16:38.668Z,83.26
2018-06-05T03:19:08.330Z,82.97
2018-06-05T03:21:37.984Z,82.45
2018-06-05T03:24:07.739Z,81.58
2018-06-05T03:26:37.325Z,81.72
2018-06-05T03:29:06.952Z,82.17
2018-06-05T03:31:36.633Z,83.39
2018-06-05T03:34:06.516Z,82.31
2018-06-05T03:36:36.063Z,83.28
2018-06-05T03:39:07.301Z,82.72
2018-06-05T03:41:36.926Z,82.62
2018-06-05T03:44:06.577Z,83.01
2018-06-05T03:46:36.120Z,83.40
2018-06-05T03:49:05.819Z,83.21
2018-06-05T03:51:35.356Z,83.48
2018-06-05T03:54:07.695Z,82.72
2018-06-05T03:56:37.858Z,83.07
2018-06-05T03:59:07.468Z,82.74
2018-06-05T04:01:37.084Z,84.04
2018-06-05T04:04:06.901Z,83.76
2018-06-05T04:06:36.754Z,84.06
2018-06-05T04:09:07.534Z,84.30
2018-06-05T04:11:37.140Z,82.87
2018-06-05T04:14:06.782Z,82.46
2018-06-05T04:16:36.375Z,83.29
2018-06-05T04:19:06.154Z,84.03
2018-06-05T04:21:35.771Z,84.17
2018-06-05T04:24:05.435Z,84.11
2018-06-05T04:26:35.188Z,83.88
2018-06-05T04:29:05.631Z,84.57
2018-06-05T04:31:35.368Z,84.13
2018-06-05T04:34:05.058Z,83.70
2018-06-05T04:36:34.687Z,83.26
2018-06-05T04:39:04.899Z,84.41
2018-06-05T04:41:34.466Z,84.48
2018-06-05T04:44:04.375Z,83.65
2018-06-05T04:46:34.212Z,84.35
2018-06-05T04:49:03.821Z,85.27
2018-06-05T04:51:33.417Z,84.69
2018-06-05T04:54:03.097Z,84.84
2018-06-05T04:56:32.702Z,83.48
2018-06-05T04:59:02.316Z,84.91
2018-06-05T05:01:32.059Z,83.53
2018-06-05T05:04:01.704Z,85.06
2018-06-05T05:06:32.157Z,84.31
2018-06-05T05:09:01.743Z,83.97
2018-06-05T05:11:31.482Z,83.46
2018-06-05T05:14:01.091Z,83.79
2018-06-05T05:16:30.907Z,84.36
2018-06-05T05:19:00.469Z,83.70
2018-06-05T05:21:30.076Z,83.30
2018-06-05T05:23:59.652Z,83.78
2018-06-05T05:26:29.372Z,83.42
2018-06-05T05:28:58.989Z,83.81
2018-06-05T05:31:28.556Z,83.07
2018-06-05T05:33:58.198Z,83.55
2018-06-05T05:36:27.903Z,83.50
2018-06-05T05:38:57.523Z,83.68
2018-06-05T05:41:27.085Z,83.47
2018-06-05T05:43:56.701Z,83.26
2018-06-05T05:46:26.258Z,83.77
2018-06-05T05:48:55.893Z,81.67
2018-06-05T05:51:25.513Z,82.97
2018-06-05T05:53:55.158Z,83.64
2018-06-05T05:56:24.891Z,83.04
2018-06-05T05:58:54.740Z,81.74
2018-06-05T06:01:24.315Z,82.24
2018-06-05T06:03:54.013Z,82.97
2018-06-05T06:06:23.673Z,83.11
2018-06-05T06:08:53.403Z,83.41
2018-06-05T06:11:23.029Z,82.13
2018-06-05T06:13:52.677Z,82.32
2018-06-05T06:16:22.452Z,81.72
2018-06-05T06:18:52.140Z,81.62
2018-06-05T06:21:21.837Z,81.31
2018-06-05T06:23:51.465Z,81.26
2018-06-05T06:26:21.127Z,80.83
2018-06-05T06:28:50.714Z,80.57
2018-06-05T06:31:20.351Z,80.13
2018-06-05T06:33:50.239Z,78.75
2018-06-05T06:36:20.144Z,79.96
2018-06-05T06:38:49.922Z,80.32
2018-06-05T06:41:19.620Z,79.33
2018-06-05T06:43:49.372Z,80.61
2018-06-05T06:46:19.158Z,79.63
2018-06-05T06:48:48.818Z,79.52
2018-06-05T06:51:18.444Z,79.12
2018-06-05T06:53:48.202Z,78.71
2018-06-05T06:56:21.615Z,79.10
2018-06-05T06:58:51.410Z,77.54
2018-06-05T07:01:21.031Z,77.76
2018-06-05T07:03:50.688Z,78.58
2018-06-05T07:06:20.332Z,78.70
2018-06-05T07:08:49.965Z,77.74
2018-06-05T07:11:19.775Z,77.92
2018-06-05T07:13:49.419Z,78.03
2018-06-05T07:16:19.129Z,76.81
2018-06-05T07:18:48.794Z,77.39
2018-06-05T07:21:18.548Z,77.93
2018-06-05T07:23:48.201Z,77.54
2018-06-05T07:26:17.808Z,78.42
2018-06-05T07:28:47.350Z,77.97
2018-06-05T07:31:16.974Z,77.38
2018-06-05T07:33:46.600Z,78.10
2018-06-05T07:36:16.240Z,78.14
2018-06-05T07:38:45.880Z,76.87
2018-06-05T07:41:15.536Z,77.73
2018-06-05T07:43:45.215Z,79.38
2018-06-05T07:46:14.868Z,77.31
2018-06-05T07:48:44.532Z,78.76
2018-06-05T07:51:14.200Z,78.03
2018-06-05T07:53:44.191Z,77.94
2018-06-05T07:56:13.822Z,78.59
2018-06-05T07:58:43.444Z,76.42
2018-06-05T08:01:13.044Z,76.95
2018-06-05T08:03:42.675Z,77.66
2018-06-05T08:06:12.372Z,77.01
2018-06-05T08:08:42.262Z,78.88
2018-06-05T08:11:11.904Z,76.87
2018-06-05T08:13:41.539Z,77.79
2018-06-05T08:16:10.812Z,77.10
2018-06-05T08:18:41.042Z,78.22
2018-06-05T08:21:10.654Z,76.99
2018-06-05T08:23:40.317Z,76.99
2018-06-05T08:26:09.929Z,77.17
2018-06-05T08:28:40.011Z,76.97
2018-06-05T08:31:09.616Z,75.90
2018-06-05T08:33:39.355Z,75.29
2018-06-05T08:36:08.991Z,74.97
2018-06-05T08:38:38.637Z,74.01
2018-06-05T08:41:08.296Z,72.70
2018-06-05T08:43:38.509Z,73.14
2018-06-05T08:46:08.288Z,73.24
2018-06-05T08:48:38.007Z,74.81
2018-06-05T08:51:07.750Z,73.97
2018-06-05T08:53:37.498Z,74.91
2018-06-05T08:56:07.257Z,73.64
2018-06-05T08:58:37.016Z,74.75
2018-06-05T09:01:06.707Z,75.07
2018-06-05T09:03:36.332Z,74.04
2018-06-05T09:06:06.359Z,73.20
2018-06-05T09:08:36.063Z,73.62
2018-06-05T09:11:05.763Z,73.11
2018-06-05T09:13:35.405Z,74.60
2018-06-05T09:16:05.284Z,75.72
2018-06-05T09:18:35.079Z,71.88
2018-06-05T09:21:04.909Z,71.65
2018-06-05T09:23:34.610Z,72.69
2018-06-05T09:26:04.472Z,70.86
2018-06-05T09:28:34.216Z,71.83
2018-06-05T09:31:03.986Z,72.09
2018-06-05T09:33:33.696Z,71.67
2018-06-05T09:36:03.467Z,73.76
2018-06-05T09:38:33.263Z,72.13
2018-06-05T09:41:02.918Z,71.59
2018-06-05T09:43:32.728Z,70.57
2018-06-05T09:46:02.476Z,70.57
2018-06-05T09:48:31.784Z,70.41
2018-06-05T09:51:01.420Z,69.79
2018-06-05T09:53:31.140Z,72.21
2018-06-05T09:56:00.838Z,71.02
2018-06-05T09:58:30.583Z,70.19
2018-06-05T10:01:00.201Z,73.27
2018-06-05T10:03:29.874Z,72.40
2018-06-05T10:05:59.596Z,71.09
2018-06-05T10:08:32.419Z,69.61
2018-06-05T10:11:02.011Z,70.74
2018-06-05T10:13:31.733Z,70.82
2018-06-05T10:16:01.333Z,72.48
2018-06-05T10:18:30.996Z,72.02
2018-06-05T10:21:00.724Z,70.37
2018-06-05T10:23:33.653Z,70.17
2018-06-05T10:26:03.283Z,68.93
2018-06-05T10:28:32.905Z,70.71
2018-06-05T10:31:02.483Z,69.10
2018-06-05T10:33:32.096Z,68.12
2018-06-05T10:36:01.644Z,67.49
2018-06-05T10:38:31.348Z,68.42
2018-06-05T10:41:01.003Z,67.91
2018-06-05T10:43:30.657Z,67.15
2018-06-05T10:46:00.343Z,67.80
2018-06-05T10:48:30.147Z,67.08
2018-06-05T10:50:59.727Z,69.23
2018-06-05T10:53:29.321Z,69.44
2018-06-05T10:55:58.962Z,67.92
2018-06-05T10:58:32.259Z,68.66
2018-06-05T11:01:01.832Z,68.94
2018-06-05T11:03:31.475Z,64.87
2018-06-05T11:06:04.168Z,65.71
2018-06-05T11:08:33.900Z,63.70
2018-06-05T11:11:03.546Z,62.44
2018-06-05T11:13:33.190Z,62.83
2018-06-05T11:16:02.943Z,65.98
2018-06-05T11:18:32.545Z,63.82
2018-06-05T11:21:02.253Z,65.18
2018-06-05T11:23:31.858Z,64.03
2018-06-05T11:26:01.522Z,62.77
2018-06-05T11:28:31.164Z,63.50
2018-06-05T11:31:00.724Z,62.21
2018-06-05T11:33:30.501Z,64.16
2018-06-05T11:36:00.105Z,63.15
2018-06-05T11:38:29.738Z,62.92
2018-06-05T11:40:59.465Z,62.87
2018-06-05T11:43:29.070Z,60.49
2018-06-05T11:46:01.715Z,65.63
2018-06-05T11:48:31.486Z,63.32
2018-06-05T11:51:01.107Z,62.78
2018-06-05T11:53:30.797Z,62.54
2018-06-05T11:56:00.400Z,62.40
2018-06-05T11:58:29.973Z,61.59
2018-06-05T12:00:59.588Z,60.44
2018-06-05T12:03:29.173Z,66.85
2018-06-05T12:05:59.101Z,63.98
2018-06-05T12:08:28.728Z,66.01
2018-06-05T12:10:58.392Z,65.64
2018-06-05T12:13:28.082Z,63.90
2018-06-05T12:15:57.791Z,64.38
2018-06-05T12:18:27.434Z,64.10
2018-06-05T12:20:57.109Z,63.95
2018-06-05T12:23:26.803Z,62.35
2018-06-05T12:25:56.473Z,62.02
2018-06-05T12:28:26.131Z,61.64
2018-06-05T12:30:55.759Z,60.12
2018-06-05T12:33:25.423Z,60.86
2018-06-05T12:35:55.033Z,64.13
2018-06-05T12:38:25.083Z,60.29
2018-06-05T12:40:54.773Z,59.93
2018-06-05T12:43:24.848Z,58.63
2018-06-05T12:45:54.401Z,57.66
2018-06-05T12:48:24.358Z,58.06
2018-06-05T12:50:53.991Z,60.24
2018-06-05T12:53:24.027Z,62.73
2018-06-05T12:55:53.693Z,61.46
2018-06-05T12:58:23.728Z,60.46
2018-06-05T13:00:53.434Z,63.75
2018-06-05T13:03:23.566Z,63.53
2018-06-05T13:05:53.302Z,62.29
2018-06-05T13:08:23.208Z,62.59
2018-06-05T13:10:52.894Z,65.12
2018-06-05T13:13:22.634Z,62.74
2018-06-05T13:15:52.378Z,65.72
2018-06-05T13:18:22.031Z,65.42
2018-06-05T13:20:51.683Z,64.84
2018-06-05T13:23:21.299Z,62.35
2018-06-05T13:25:50.952Z,64.10
2018-06-05T13:28:20.589Z,63.34
2018-06-05T13:30:50.209Z,64.58
2018-06-05T13:33:19.856Z,66.63
2018-06-05T13:35:49.503Z,67.16
2018-06-05T13:38:19.162Z,66.05
2018-06-05T13:40:48.843Z,67.39
2018-06-05T13:43:18.604Z,67.12
2018-06-05T13:45:48.228Z,68.41
2018-06-05T13:48:17.919Z,64.41
2018-06-05T13:50:47.803Z,66.05
2018-06-05T13:53:17.540Z,65.98
2018-06-05T13:55:47.358Z,64.50
2018-06-05T13:58:16.691Z,65.11
2018-06-05T14:00:46.328Z,63.83
2018-06-05T14:03:15.910Z,68.28
2018-06-05T14:05:45.604Z,70.35
2018-06-05T14:08:15.260Z,66.85
2018-06-05T14:10:44.908Z,65.99
2018-06-05T14:13:14.500Z,67.31
2018-06-05T14:15:44.172Z,66.62
2018-06-05T14:18:13.798Z,67.61
2018-06-05T14:20:43.425Z,67.62
2018-06-05T14:23:12.962Z,68.89
2018-06-05T14:25:42.662Z,69.08
2018-06-05T14:28:12.322Z,65.99
2018-06-05T14:30:41.873Z,66.17
2018-06-05T14:33:11.490Z,65.23
2018-06-05T14:35:41.112Z,65.93
2018-06-05T14:38:10.871Z,66.72
2018-06-05T14:40:40.561Z,66.01
2018-06-05T14:43:10.217Z,63.91
2018-06-05T14:45:39.976Z,63.33
2018-06-05T14:48:09.699Z,66.80
2018-06-05T14:50:39.428Z,67.24
2018-06-05T14:53:09.046Z,64.97
2018-06-05T14:55:38.732Z,65.14
2018-06-05T14:58:08.358Z,66.79
2018-06-05T15:00:38.092Z,66.14
2018-06-05T15:03:07.724Z,66.68
2018-06-05T15:05:37.401Z,63.17
2018-06-05T15:08:07.419Z,63.03
2018-06-05T15:10:37.153Z,66.37
2018-06-05T15:13:07.107Z,67.53
2018-06-05T15:15:36.981Z,67.25
2018-06-05T15:18:06.598Z,65.79
2018-06-05T15:20:36.746Z,66.60
2018-06-05T15:23:06.516Z,66.14
2018-06-05T15:25:36.469Z,65.40
2018-06-05T15:28:06.250Z,65.09
2018-06-05T15:30:36.563Z,64.46
2018-06-05T15:33:06.251Z,63.79
2018-06-05T15:35:36.095Z,63.56
2018-06-05T15:38:05.984Z,64.26
2018-06-05T15:40:35.952Z,63.37
2018-06-05T15:43:05.622Z,64.00
2018-06-05T15:45:35.393Z,63.76
2018-06-05T15:48:05.670Z,63.27
2018-06-05T15:50:35.733Z,64.12
2018-06-05T15:53:05.931Z,63.42
2018-06-05T15:55:35.546Z,63.59
2018-06-05T15:58:05.313Z,63.84
2018-06-05T16:00:34.903Z,64.07
2018-06-05T16:03:04.824Z,61.70
2018-06-05T16:05:34.548Z,62.01
2018-06-05T16:08:04.216Z,61.45
2018-06-05T16:10:33.997Z,61.35
2018-06-05T16:13:03.747Z,61.93
2018-06-05T16:15:33.496Z,62.75
2018-06-05T16:18:03.435Z,63.45
2018-06-05T16:20:33.086Z,63.30
2018-06-05T16:23:02.756Z,63.56
2018-06-05T16:25:32.615Z,62.45
2018-06-05T16:28:02.339Z,61.77
2018-06-05T16:30:32.076Z,60.92
2018-06-05T16:33:01.351Z,60.36
2018-06-05T16:35:30.969Z,60.44
2018-06-05T16:38:00.614Z,61.85
2018-06-05T16:40:30.316Z,60.84
2018-06-05T16:43:00.014Z,60.42
2018-06-05T16:45:30.200Z,60.33
2018-06-05T16:47:59.826Z,59.89
2018-06-05T16:50:29.418Z,59.81
2018-06-05T16:52:59.038Z,59.56
2018-06-05T16:55:28.664Z,60.03
2018-06-05T16:57:58.421Z,60.23
2018-06-05T17:00:28.240Z,61.51
2018-06-05T17:02:57.982Z,59.55
2018-06-05T17:05:27.968Z,60.76
2018-06-05T17:07:57.726Z,60.14
2018-06-05T17:10:27.619Z,61.72
2018-06-05T17:12:57.302Z,60.40
2018-06-05T17:15:27.022Z,60.90
2018-06-05T17:17:56.729Z,59.91
2018-06-05T17:20:26.482Z,60.05
2018-06-05T17:22:56.135Z,60.68
2018-06-05T17:25:25.800Z,60.18
2018-06-05T17:27:55.525Z,60.75
2018-06-05T17:30:25.169Z,59.94
2018-06-05T17:32:54.818Z,59.59
2018-06-05T17:35:24.511Z,59.64
2018-06-05T17:37:54.085Z,60.00
2018-06-05T17:40:23.842Z,60.73
2018-06-05T17:42:53.511Z,61.25
2018-06-05T17:45:23.184Z,60.35
2018-06-05T17:47:52.780Z,59.64
2018-06-05T17:50:22.601Z,59.90
2018-06-05T17:52:52.272Z,59.77
2018-06-05T17:55:21.880Z,59.79
2018-06-05T17:57:51.509Z,60.12
2018-06-05T18:00:21.198Z,60.01
2018-06-05T18:02:51.005Z,59.61
2018-06-05T18:05:20.760Z,59.81
2018-06-05T18:07:50.824Z,59.28
2018-06-05T18:10:20.419Z,59.68
2018-06-05T18:12:50.612Z,58.21
2018-06-05T18:15:20.385Z,58.75
2018-06-05T18:17:50.287Z,58.27
2018-06-05T18:20:20.011Z,57.42
2018-06-05T18:22:50.322Z,57.52
2018-06-05T18:25:20.262Z,57.57
2018-06-05T18:27:50.418Z,56.72
2018-06-05T18:30:20.144Z,57.58
2018-06-05T18:32:50.051Z,56.76
2018-06-05T18:35:19.753Z,57.55
2018-06-05T18:37:50.373Z,56.99
2018-06-05T18:40:20.071Z,57.83
2018-06-05T18:42:49.894Z,58.48
2018-06-05T18:45:19.764Z,58.97
2018-06-05T18:47:49.474Z,59.29
2018-06-05T18:50:19.214Z,59.60
2018-06-05T18:52:48.959Z,59.80
2018-06-05T18:55:18.713Z,60.26
2018-06-05T18:57:48.342Z,61.04
2018-06-05T19:00:18.113Z,60.57
2018-06-05T19:02:47.802Z,61.50
2018-06-05T19:05:17.545Z,61.67
2018-06-05T19:07:47.359Z,62.22
2018-06-05T19:10:16.982Z,63.04
2018-06-05T19:12:47.186Z,63.37
2018-06-05T19:15:17.092Z,62.77
2018-06-05T19:17:46.767Z,63.68
2018-06-05T19:20:16.489Z,63.33
2018-06-05T19:22:46.162Z,63.53
2018-06-05T19:25:16.703Z,64.55
2018-06-05T19:27:46.481Z,65.24
2018-06-05T19:30:16.194Z,64.56
2018-06-05T19:32:45.963Z,64.64
2018-06-05T19:35:16.088Z,65.17
2018-06-05T19:37:45.769Z,65.29
2018-06-05T19:40:15.447Z,66.18
2018-06-05T19:42:45.246Z,66.72
2018-06-05T19:45:15.012Z,67.20
2018-06-05T19:47:44.697Z,66.43
2018-06-05T19:50:14.417Z,66.86
2018-06-05T19:52:44.151Z,66.21
2018-06-05T19:55:14.021Z,67.90
2018-06-05T19:57:50.369Z,67.70
2018-06-05T20:00:20.038Z,68.55
2018-06-05T20:02:49.689Z,68.22
2018-06-05T20:05:19.424Z,68.94
2018-06-05T20:07:49.176Z,68.45
2018-06-05T20:10:18.864Z,68.40
2018-06-05T20:12:48.653Z,69.58
2018-06-05T20:15:18.393Z,68.76
2018-06-05T20:17:48.129Z,68.49
2018-06-05T20:20:17.828Z,69.38
2018-06-05T20:22:47.677Z,69.87
2018-06-05T20:25:17.376Z,69.79
2018-06-05T20:27:47.238Z,71.63
2018-06-05T20:30:17.155Z,71.53
2018-06-05T20:32:47.059Z,71.64
2018-06-05T20:35:16.775Z,71.21
2018-06-05T20:37:46.486Z,71.43
2018-06-05T20:40:16.165Z,72.72
2018-06-05T20:42:45.863Z,73.39
2018-06-05T20:45:15.495Z,74.38
2018-06-05T20:47:45.128Z,75.20
2018-06-05T20:50:14.744Z,75.31
2018-06-05T20:52:44.452Z,75.31
2018-06-05T20:55:14.215Z,75.63
2018-06-05T20:57:44.132Z,76.31
2018-06-05T21:00:13.950Z,76.21
2018-06-05T21:02:43.691Z,77.08
2018-06-05T21:05:13.628Z,77.17
2018-06-05T21:07:43.305Z,77.63
2018-06-05T21:10:12.984Z,77.30
2018-06-05T21:12:42.802Z,77.93
2018-06-05T21:15:12.544Z,78.14
2018-06-05T21:17:42.182Z,78.27
2018-06-05T21:20:11.909Z,78.30
2018-06-05T21:22:41.750Z,78.29
2018-06-05T21:25:11.593Z,79.64
2018-06-05T21:27:41.317Z,79.41
2018-06-05T21:30:11.264Z,79.41
2018-06-05T21:32:41.763Z,79.95
2018-06-05T21:35:11.452Z,78.65
2018-06-05T21:37:41.405Z,79.53
2018-06-05T21:40:11.342Z,80.81
2018-06-05T21:42:41.411Z,80.67
2018-06-05T21:45:11.263Z,80.49
2018-06-05T21:47:40.928Z,80.56
2018-06-05T21:50:10.787Z,80.63
2018-06-05T21:52:40.549Z,81.25
2018-06-05T21:55:10.637Z,81.13
2018-06-05T21:57:40.335Z,80.95
2018-06-05T22:00:10.193Z,81.04
2018-06-05T22:02:39.946Z,82.22
2018-06-05T22:05:09.291Z,81.98
2018-06-05T22:07:38.909Z,81.69
2018-06-05T22:10:08.640Z,81.68
2018-06-05T22:12:38.316Z,82.30
2018-06-05T22:15:08.003Z,82.55
2018-06-05T22:17:37.579Z,82.37
2018-06-05T22:20:07.130Z,82.83
2018-06-05T22:22:36.737Z,82.69
2018-06-05T22:25:06.375Z,82.99
2018-06-05T22:27:35.963Z,81.97
2018-06-05T22:30:05.635Z,82.30
2018-06-05T22:32:35.299Z,83.07
2018-06-05T22:35:04.846Z,83.55
2018-06-05T22:37:34.551Z,83.25
2018-06-05T22:40:04.294Z,82.94
2018-06-05T22:42:33.906Z,83.32
2018-06-05T22:45:03.593Z,83.82
2018-06-05T22:47:33.253Z,83.34
2018-06-05T22:50:02.915Z,83.31
2018-06-05T22:52:32.511Z,84.07
2018-06-05T22:55:02.161Z,85.42
2018-06-05T22:57:31.819Z,84.18
2018-06-05T23:00:01.414Z,85.06
2018-06-05T23:02:30.998Z,84.65
2018-06-05T23:05:00.685Z,85.48
2018-06-05T23:07:30.362Z,85.41
2018-06-05T23:09:59.952Z,85.41
2018-06-05T23:12:29.532Z,84.97
2018-06-05T23:14:59.071Z,85.18
2018-06-05T23:17:28.639Z,85.57
2018-06-05T23:19:58.208Z,85.18
2018-06-05T23:22:27.741Z,85.96
2018-06-05T23:24:57.301Z,84.03
2018-06-05T23:27:26.857Z,85.41
2018-06-05T23:29:56.456Z,85.36
2018-06-05T23:32:26.224Z,84.42
2018-06-05T23:34:55.838Z,84.58
2018-06-05T23:37:25.489Z,84.20
2018-06-05T23:39:55.115Z,83.74
2018-06-05T23:42:24.698Z,83.70
2018-06-05T23:44:54.230Z,83.63
2018-06-05T23:47:23.802Z,83.06
2018-06-05T23:49:53.568Z,83.33
2018-06-05T23:52:23.212Z,83.64
2018-06-05T23:54:52.872Z,83.86
2018-06-05T23:57:22.475Z,84.54
2018-06-05T23:59:52.042Z,84.66
